Time;durP1;ratioP1;P1;durP2;ratioP2;P2;SDS_P1;SDS_P2;PMS_P1;PMS_P2;Temp;Humidity;BMP_temperature;BMP_pressure;BME280_temperature;BME280_humidity;BME280_pressure;Samples;Min_cycle;Max_cycle;Signal;HPM_P1;HPM_P2
2021/06/17 00:00:17;;;;;;;;;;;26.20;47.30;;;;;;5146075;27;19919;-72
2021/06/17 00:02:45;;;;;;;;;;;26.20;47.40;;;;;;5144093;27;19962;-72
2021/06/17 00:05:13;;;;;;;;;;;26.10;47.50;;;;;;5145942;27;20038;-73
2021/06/17 00:07:40;;;;;;;;;;;26.00;47.40;;;;;;5149547;27;19919;-72
2021/06/17 00:10:13;;;;;;;;;;;26.00;47.60;;;;;;5144481;27;20350;-73
2021/06/17 00:12:39;;;;;;;;;;;26.00;47.50;;;;;;5128784;27;19988;-70
2021/06/17 00:15:08;;;;;;;;;;;26.00;47.90;;;;;;5148787;27;19919;-71
2021/06/17 00:17:35;;;;;;;;;;;26.10;47.80;;;;;;5147391;27;20017;-71
2021/06/17 00:20:03;;;;;;;;;;;26.10;47.50;;;;;;5129568;27;19933;-71
2021/06/17 00:22:29;;;;;;;;;;;26.10;47.60;;;;;;5144297;27;20366;-71
2021/06/17 00:24:56;;;;;;;;;;;26.00;47.90;;;;;;5144207;27;19998;-71
2021/06/17 00:27:23;;;;;;;;;;;25.90;47.80;;;;;;5145470;27;19964;-71
2021/06/17 00:29:49;;;;;;;;;;;25.90;47.90;;;;;;5149996;27;19961;-72
2021/06/17 00:32:16;;;;;;;;;;;25.90;48.10;;;;;;5148611;27;19918;-72
2021/06/17 00:34:43;;;;;;;;;;;25.80;48.20;;;;;;5147429;27;19972;-72
2021/06/17 00:37:10;;;;;;;;;;;25.70;48.30;;;;;;5148043;27;19958;-71
2021/06/17 00:39:37;;;;;;;;;;;25.80;48.70;;;;;;5146562;27;20014;-71
2021/06/17 00:42:04;;;;;;;;;;;25.90;48.10;;;;;;5148155;27;19998;-72
2021/06/17 00:44:31;;;;;;;;;;;25.90;47.90;;;;;;5147443;27;19965;-73
2021/06/17 00:46:58;;;;;;;;;;;25.90;48.50;;;;;;5144008;27;19923;-72
2021/06/17 00:49:24;;;;;;;;;;;25.80;48.00;;;;;;5144590;27;20022;-71
2021/06/17 00:51:51;;;;;;;;;;;25.70;48.30;;;;;;5139067;27;19919;-73
2021/06/17 00:54:33;;;;;;;;;;;25.70;48.60;;;;;;5148319;27;20011;-73
2021/06/17 00:57:05;;;;;;;;;;;25.60;48.50;;;;;;5148998;27;20006;-73
2021/06/17 00:59:32;;;;;;;;;;;25.40;49.30;;;;;;5126654;27;20330;-73
2021/06/17 01:01:58;;;;;;;;;;;25.30;49.60;;;;;;5151430;27;19972;-73
2021/06/17 01:04:26;;;;;;;;;;;25.30;49.30;;;;;;5150554;27;19987;-73
2021/06/17 01:06:53;;;;;;;;;;;25.30;49.80;;;;;;5148082;27;19992;-73
2021/06/17 01:09:32;;;;;;;;;;;25.30;49.90;;;;;;5149576;27;19990;-73
2021/06/17 01:12:25;;;;;;;;;;;25.40;49.70;;;;;;5148073;27;19918;-73
2021/06/17 01:15:03;;;;;;;;;;;25.30;49.90;;;;;;5137197;27;19919;-72
2021/06/17 01:17:33;;;;;;;;;;;25.30;50.00;;;;;;5149895;27;19933;-73
2021/06/17 01:20:03;;;;;;;;;;;25.30;49.70;;;;;;5147096;27;20266;-72
2021/06/17 01:22:50;;;;;;;;;;;25.20;49.50;;;;;;5145131;27;20267;-73
2021/06/17 01:25:35;;;;;;;;;;;25.20;49.50;;;;;;5151739;27;19963;-71
2021/06/17 01:28:04;;;;;;;;;;;25.20;49.40;;;;;;5148076;27;19923;-72
2021/06/17 01:30:33;;;;;;;;;;;25.30;49.30;;;;;;5127059;27;19968;-72
2021/06/17 01:33:01;;;;;;;;;;;25.10;49.30;;;;;;5154493;27;19965;-72
2021/06/17 01:35:28;;;;;;;;;;;25.10;49.70;;;;;;5151134;27;19923;-72
2021/06/17 01:37:57;;;;;;;;;;;25.00;49.70;;;;;;5150487;27;19955;-72
2021/06/17 01:40:25;;;;;;;;;;;25.20;50.10;;;;;;5150360;27;20285;-72
2021/06/17 01:42:52;;;;;;;;;;;25.20;49.90;;;;;;5148106;27;19954;-72
2021/06/17 01:45:21;;;;;;;;;;;25.10;49.90;;;;;;5147667;27;19946;-73
2021/06/17 01:47:50;;;;;;;;;;;25.20;50.00;;;;;;5148410;27;20030;-70
2021/06/17 01:50:18;;;;;;;;;;;25.10;50.00;;;;;;5147117;27;20362;-72
2021/06/17 01:52:46;;;;;;;;;;;25.00;50.40;;;;;;5125092;27;20022;-73
2021/06/17 01:55:13;;;;;;;;;;;25.00;49.80;;;;;;5153853;27;20013;-73
2021/06/17 01:57:41;;;;;;;;;;;25.00;49.90;;;;;;5146559;27;19919;-71
2021/06/17 02:00:08;;;;;;;;;;;25.00;50.10;;;;;;5150540;27;19935;-71
2021/06/17 02:02:36;;;;;;;;;;;25.00;50.80;;;;;;5151245;27;19922;-71
2021/06/17 02:05:04;;;;;;;;;;;25.00;50.60;;;;;;5150155;27;19925;-72
2021/06/17 02:07:31;;;;;;;;;;;25.00;50.60;;;;;;5148288;27;19920;-73
2021/06/17 02:09:58;;;;;;;;;;;25.00;50.30;;;;;;5152940;27;20512;-73
2021/06/17 02:12:25;;;;;;;;;;;24.90;49.20;;;;;;5147433;27;19955;-72
2021/06/17 02:14:52;;;;;;;;;;;24.90;49.20;;;;;;5151755;27;19927;-70
2021/06/17 02:17:20;;;;;;;;;;;24.80;50.80;;;;;;5150588;27;19958;-71
2021/06/17 02:19:47;;;;;;;;;;;24.80;52.30;;;;;;5145977;27;20342;-72
2021/06/17 02:22:15;;;;;;;;;;;24.80;52.80;;;;;;5145568;27;19950;-70
2021/06/17 02:24:44;;;;;;;;;;;24.90;52.30;;;;;;5150517;27;19919;-72
2021/06/17 02:27:13;;;;;;;;;;;24.90;52.20;;;;;;5140723;27;20040;-73
2021/06/17 02:29:44;;;;;;;;;;;24.80;51.40;;;;;;5149338;27;20341;-70
2021/06/17 02:32:21;;;;;;;;;;;24.80;51.10;;;;;;5150241;27;19923;-72
2021/06/17 02:34:49;;;;;;;;;;;24.70;52.00;;;;;;5147703;27;20006;-74
2021/06/17 02:37:16;;;;;;;;;;;24.60;52.30;;;;;;5147913;27;20042;-72
2021/06/17 02:39:45;;;;;;;;;;;24.60;52.40;;;;;;5151001;27;19919;-73
2021/06/17 02:42:14;;;;;;;;;;;24.70;52.20;;;;;;5147265;27;20452;-73
2021/06/17 02:44:41;;;;;;;;;;;24.60;52.40;;;;;;5151458;27;19928;-73
2021/06/17 02:47:08;;;;;;;;;;;24.60;52.30;;;;;;5147182;27;19954;-72
2021/06/17 02:49:35;;;;;;;;;;;24.50;52.80;;;;;;5145203;27;19961;-72
2021/06/17 02:52:01;;;;;;;;;;;24.60;53.60;;;;;;5144652;27;20010;-71
2021/06/17 02:54:28;;;;;;;;;;;24.60;53.50;;;;;;5150777;27;20029;-73
2021/06/17 02:57:09;;;;;;;;;;;24.50;53.60;;;;;;5141290;27;20239;-72
2021/06/17 02:59:48;;;;;;;;;;;24.40;53.60;;;;;;5148884;27;19926;-71
2021/06/17 03:02:19;;;;;;;;;;;24.40;53.80;;;;;;5149453;27;20081;-73
2021/06/17 03:04:46;;;;;;;;;;;24.40;53.80;;;;;;5146423;27;20017;-71
2021/06/17 03:07:24;;;;;;;;;;;24.50;53.70;;;;;;5150543;27;20666;-72
2021/06/17 03:09:53;;;;;;;;;;;24.30;54.10;;;;;;5148516;27;19958;-73
2021/06/17 03:12:21;;;;;;;;;;;24.40;54.30;;;;;;5148126;27;19962;-70
2021/06/17 03:14:49;;;;;;;;;;;24.40;54.30;;;;;;5139350;27;19919;-72
2021/06/17 03:17:17;;;;;;;;;;;24.30;54.40;;;;;;5148413;27;19970;-72
2021/06/17 03:19:46;;;;;;;;;;;24.30;54.70;;;;;;5146683;27;19926;-71
2021/06/17 03:22:13;;;;;;;;;;;24.20;54.70;;;;;;5148428;27;19961;-72
2021/06/17 03:24:42;;;;;;;;;;;24.10;54.90;;;;;;5143921;27;20354;-71
2021/06/17 03:27:09;;;;;;;;;;;24.10;55.20;;;;;;5144140;27;20231;-71
2021/06/17 03:29:37;;;;;;;;;;;24.20;55.90;;;;;;5150201;27;19918;-71
2021/06/17 03:32:05;;;;;;;;;;;24.10;56.00;;;;;;5146821;27;19958;-70
2021/06/17 03:34:32;;;;;;;;;;;24.10;56.40;;;;;;5145315;27;20449;-70
2021/06/17 03:37:00;;;;;;;;;;;24.20;56.20;;;;;;5125544;27;20022;-72
2021/06/17 03:39:29;;;;;;;;;;;24.10;56.00;;;;;;5145586;27;19919;-72
2021/06/17 03:41:58;;;;;;;;;;;23.90;56.30;;;;;;5139952;27;20001;-71
2021/06/17 03:44:25;;;;;;;;;;;23.80;56.70;;;;;;5133673;27;20026;-73
2021/06/17 03:46:53;;;;;;;;;;;23.80;57.30;;;;;;5146152;27;20042;-72
2021/06/17 03:49:21;;;;;;;;;;;23.90;57.50;;;;;;5147561;27;19923;-71
2021/06/17 03:51:48;;;;;;;;;;;23.90;57.90;;;;;;5148592;27;19977;-70
2021/06/17 03:54:23;;;;;;;;;;;23.70;58.20;;;;;;5147070;27;20026;-70
2021/06/17 03:56:51;;;;;;;;;;;23.80;58.30;;;;;;5118549;27;19918;-71
2021/06/17 03:59:20;;;;;;;;;;;23.90;58.30;;;;;;5140552;27;19991;-71
2021/06/17 04:01:47;;;;;;;;;;;23.90;58.50;;;;;;5140692;27;20006;-71
2021/06/17 04:04:13;;;;;;;;;;;23.90;58.30;;;;;;5145910;27;19947;-71
2021/06/17 04:06:55;;;;;;;;;;;23.80;58.70;;;;;;5148018;27;20013;-71
2021/06/17 04:09:27;;;;;;;;;;;23.90;58.80;;;;;;5143767;27;20307;-71
2021/06/17 04:12:10;;;;;;;;;;;23.90;58.80;;;;;;5138342;27;20005;-65
2021/06/17 04:14:39;;;;;;;;;;;23.90;58.90;;;;;;5150426;27;19970;-65
2021/06/17 04:17:07;;;;;;;;;;;23.80;59.30;;;;;;5124607;27;20013;-65
2021/06/17 04:19:35;;;;;;;;;;;23.90;59.10;;;;;;5115905;27;19955;-66
2021/06/17 04:22:07;;;;;;;;;;;24.00;59.00;;;;;;5149080;27;19933;-66
2021/06/17 04:24:38;;;;;;;;;;;24.10;59.00;;;;;;5136031;27;20006;-65
2021/06/17 04:27:05;;;;;;;;;;;24.00;59.10;;;;;;5122538;27;20303;-66
2021/06/17 04:29:37;;;;;;;;;;;24.10;59.00;;;;;;5140838;27;19958;-64
2021/06/17 04:32:04;;;;;;;;;;;24.10;58.50;;;;;;5144782;27;19997;-65
2021/06/17 04:34:32;;;;;;;;;;;24.00;59.00;;;;;;5144457;27;20279;-64
2021/06/17 04:36:59;;;;;;;;;;;24.10;59.50;;;;;;5150179;27;20373;-72
2021/06/17 04:39:27;;;;;;;;;;;24.10;59.50;;;;;;5146146;27;20017;-72
2021/06/17 04:41:54;;;;;;;;;;;24.30;59.60;;;;;;5137781;27;19921;-72
2021/06/17 04:44:21;;;;;;;;;;;24.20;59.60;;;;;;5150604;27;19958;-72
2021/06/17 04:46:48;;;;;;;;;;;24.30;59.80;;;;;;5146727;27;19975;-71
2021/06/17 04:49:16;;;;;;;;;;;24.50;59.50;;;;;;5143095;27;19927;-74
2021/06/17 04:51:43;;;;;;;;;;;24.40;59.30;;;;;;5140927;27;20596;-72
2021/06/17 04:54:19;;;;;;;;;;;24.50;59.80;;;;;;5139106;27;19971;-71
2021/06/17 04:56:46;;;;;;;;;;;24.90;59.40;;;;;;5139359;27;20030;-72
2021/06/17 04:59:13;;;;;;;;;;;25.20;58.00;;;;;;5145658;27;20305;-65
2021/06/17 05:01:41;;;;;;;;;;;25.60;57.10;;;;;;5141719;27;20014;-65
2021/06/17 05:04:08;;;;;;;;;;;25.50;57.10;;;;;;5148268;27;19923;-65
2021/06/17 05:06:37;;;;;;;;;;;25.80;57.00;;;;;;5148222;27;19958;-73
2021/06/17 05:11:52;;;;;;;;;;;26.10;55.50;;;;;;5144315;27;19930;-71
2021/06/17 05:14:19;;;;;;;;;;;26.40;53.30;;;;;;5126548;27;19926;-73
2021/06/17 05:16:47;;;;;;;;;;;26.70;51.40;;;;;;5127423;27;20013;-71
2021/06/17 05:19:17;;;;;;;;;;;26.90;50.50;;;;;;5146046;27;19953;-73
2021/06/17 05:21:44;;;;;;;;;;;27.20;49.80;;;;;;5148530;27;19948;-73
2021/06/17 05:24:10;;;;;;;;;;;27.50;48.90;;;;;;5146945;27;19918;-71
2021/06/17 05:26:37;;;;;;;;;;;28.30;48.20;;;;;;5140152;27;19948;-71
2021/06/17 05:29:04;;;;;;;;;;;28.80;47.80;;;;;;5146724;27;19919;-72
2021/06/17 05:31:31;;;;;;;;;;;29.20;46.60;;;;;;5143753;27;20452;-73
2021/06/17 05:33:58;;;;;;;;;;;30.10;45.80;;;;;;5153683;27;19970;-73
2021/06/17 05:36:25;;;;;;;;;;;30.40;45.10;;;;;;5150457;27;19964;-72
2021/06/17 05:38:52;;;;;;;;;;;31.20;43.70;;;;;;5147777;27;19965;-71
2021/06/17 05:41:19;;;;;;;;;;;30.00;44.60;;;;;;5149153;27;19987;-72
2021/06/17 05:43:45;;;;;;;;;;;29.40;45.90;;;;;;5128665;27;19918;-71
2021/06/17 05:46:12;;;;;;;;;;;29.60;45.90;;;;;;5147750;27;20405;-73
2021/06/17 05:48:40;;;;;;;;;;;28.40;46.50;;;;;;5150941;27;19949;-74
2021/06/17 05:51:07;;;;;;;;;;;27.20;49.00;;;;;;5147680;27;19923;-73
2021/06/17 05:53:34;;;;;;;;;;;26.80;49.70;;;;;;5149767;27;20309;-74
2021/06/17 05:56:01;;;;;;;;;;;26.60;50.00;;;;;;5149684;27;19977;-66
2021/06/17 05:58:28;;;;;;;;;;;26.40;50.40;;;;;;5143398;27;20307;-66
2021/06/17 06:00:55;;;;;;;;;;;26.30;50.30;;;;;;5148383;27;20399;-66
2021/06/17 06:03:22;;;;;;;;;;;26.30;50.60;;;;;;5150535;27;19941;-67
2021/06/17 06:05:48;;;;;;;;;;;26.60;50.00;;;;;;5128727;27;19927;-66
2021/06/17 06:08:15;;;;;;;;;;;26.70;49.70;;;;;;5146466;27;19927;-66
2021/06/17 06:10:45;;;;;;;;;;;26.50;49.90;;;;;;5150628;27;20370;-65
2021/06/17 06:13:12;;;;;;;;;;;26.50;49.90;;;;;;5145673;27;20298;-66
2021/06/17 06:15:39;;;;;;;;;;;26.30;50.40;;;;;;5150559;27;19973;-66
2021/06/17 06:18:06;;;;;;;;;;;26.20;50.50;;;;;;5150682;27;20010;-65
2021/06/17 06:20:34;;;;;;;;;;;26.30;50.70;;;;;;5146653;27;19919;-65
2021/06/17 06:23:01;;;;;;;;;;;26.50;50.00;;;;;;5152218;27;20474;-66
2021/06/17 06:25:27;;;;;;;;;;;26.60;50.40;;;;;;5145416;27;19984;-66
2021/06/17 06:27:54;;;;;;;;;;;26.30;51.60;;;;;;5147318;27;19975;-66
2021/06/17 06:30:21;;;;;;;;;;;26.10;52.00;;;;;;5139375;27;19919;-66
2021/06/17 06:32:48;;;;;;;;;;;26.80;51.40;;;;;;5145002;27;19958;-65
2021/06/17 06:35:15;;;;;;;;;;;27.80;48.80;;;;;;5144790;27;20018;-67
2021/06/17 06:37:49;;;;;;;;;;;27.40;49.80;;;;;;5150899;27;19919;-67
2021/06/17 06:40:22;;;;;;;;;;;27.30;50.70;;;;;;5147215;27;20329;-67
2021/06/17 06:42:50;;;;;;;;;;;27.60;49.20;;;;;;5130620;27;19965;-66
2021/06/17 06:45:16;;;;;;;;;;;26.90;49.80;;;;;;5140984;27;20293;-66
2021/06/17 06:47:43;;;;;;;;;;;27.20;49.40;;;;;;5146286;27;19958;-66
2021/06/17 06:50:10;;;;;;;;;;;28.40;47.80;;;;;;5144529;27;19962;-66
2021/06/17 06:52:38;;;;;;;;;;;31.80;43.40;;;;;;5150671;27;20002;-66
2021/06/17 06:55:05;;;;;;;;;;;31.00;40.20;;;;;;5146829;27;20029;-65
2021/06/17 06:57:31;;;;;;;;;;;29.10;44.00;;;;;;5142046;27;20005;-66
2021/06/17 06:59:58;;;;;;;;;;;28.20;45.50;;;;;;5149131;27;19918;-73
2021/06/17 07:02:25;;;;;;;;;;;27.70;45.50;;;;;;5145981;27;19961;-76
2021/06/17 07:04:52;;;;;;;;;;;27.60;45.80;;;;;;5128358;27;20002;-72
2021/06/17 07:07:18;;;;;;;;;;;27.60;46.30;;;;;;5147375;27;19927;-73
2021/06/17 07:09:45;;;;;;;;;;;27.40;46.10;;;;;;5144148;27;19972;-72
2021/06/17 07:12:12;;;;;;;;;;;27.40;46.00;;;;;;5144581;27;19919;-75
2021/06/17 07:14:42;;;;;;;;;;;27.50;45.70;;;;;;5149701;27;19919;-73
2021/06/17 07:17:09;;;;;;;;;;;27.70;45.20;;;;;;5147188;27;19919;-73
2021/06/17 07:19:35;;;;;;;;;;;28.20;44.30;;;;;;5141809;27;20038;-73
2021/06/17 07:22:02;;;;;;;;;;;30.40;41.70;;;;;;5147530;27;19987;-74
2021/06/17 07:24:29;;;;;;;;;;;30.30;40.50;;;;;;5148210;27;20357;-73
2021/06/17 07:26:56;;;;;;;;;;;31.20;39.60;;;;;;5147918;27;20311;-73
2021/06/17 07:29:23;;;;;;;;;;;30.20;40.30;;;;;;5128594;27;20037;-73
2021/06/17 07:31:49;;;;;;;;;;;29.50;41.90;;;;;;5146600;27;20262;-72
2021/06/17 07:34:16;;;;;;;;;;;28.50;42.30;;;;;;5148573;27;20365;-73
2021/06/17 07:36:43;;;;;;;;;;;28.40;43.40;;;;;;5125801;27;20022;-70
2021/06/17 07:39:13;;;;;;;;;;;28.40;44.10;;;;;;5146168;27;19919;-71
2021/06/17 07:41:40;;;;;;;;;;;28.50;45.30;;;;;;5125784;27;20370;-71
2021/06/17 07:44:07;;;;;;;;;;;28.50;43.10;;;;;;5144632;27;19925;-71
2021/06/17 07:46:34;;;;;;;;;;;28.30;44.00;;;;;;5152114;27;19969;-72
2021/06/17 07:49:01;;;;;;;;;;;28.00;45.10;;;;;;5127336;27;19923;-70
2021/06/17 07:51:29;;;;;;;;;;;27.80;45.70;;;;;;5130604;27;20390;-71
2021/06/17 07:54:01;;;;;;;;;;;27.80;45.80;;;;;;5149825;27;19926;-72
2021/06/17 07:56:29;;;;;;;;;;;27.90;45.90;;;;;;5141689;27;19965;-72
2021/06/17 07:58:55;;;;;;;;;;;27.80;45.70;;;;;;5128680;27;20349;-72
2021/06/17 08:01:22;;;;;;;;;;;27.80;46.10;;;;;;5148761;27;19919;-72
2021/06/17 08:03:49;;;;;;;;;;;27.90;45.80;;;;;;5143613;27;19919;-71
2021/06/17 08:06:17;;;;;;;;;;;27.90;46.30;;;;;;5149875;27;19968;-72
2021/06/17 08:08:44;;;;;;;;;;;27.90;46.60;;;;;;5143583;27;20284;-71
2021/06/17 08:11:12;;;;;;;;;;;27.90;46.00;;;;;;5138046;27;19927;-71
2021/06/17 08:13:50;;;;;;;;;;;27.90;45.90;;;;;;5146918;27;19926;-67
2021/06/17 08:16:16;;;;;;;;;;;27.90;46.70;;;;;;5147602;27;19953;-66
2021/06/17 08:18:43;;;;;;;;;;;27.90;45.30;;;;;;5146155;27;20338;-68
2021/06/17 08:21:10;;;;;;;;;;;28.00;45.20;;;;;;5143928;27;19958;-68
2021/06/17 08:23:37;;;;;;;;;;;27.90;46.90;;;;;;5143241;27;19922;-66
2021/06/17 08:26:04;;;;;;;;;;;27.90;46.00;;;;;;5141420;27;20009;-70
2021/06/17 08:28:31;;;;;;;;;;;28.00;45.80;;;;;;5146816;27;19919;-67
2021/06/17 08:30:58;;;;;;;;;;;28.10;46.20;;;;;;5146472;27;19969;-68
2021/06/17 08:33:25;;;;;;;;;;;28.00;45.40;;;;;;5143849;27;19923;-67
2021/06/17 08:35:52;;;;;;;;;;;28.00;45.70;;;;;;5145502;27;20013;-66
2021/06/17 08:38:20;;;;;;;;;;;28.10;46.60;;;;;;5145009;27;19970;-67
2021/06/17 08:40:47;;;;;;;;;;;28.30;46.10;;;;;;5145839;27;20458;-68
2021/06/17 08:43:14;;;;;;;;;;;28.50;45.50;;;;;;5146081;27;20342;-67
2021/06/17 08:45:40;;;;;;;;;;;28.60;46.00;;;;;;5145164;27;19972;-66
2021/06/17 08:48:07;;;;;;;;;;;28.60;46.20;;;;;;5147903;27;19958;-68
2021/06/17 08:50:34;;;;;;;;;;;28.60;46.10;;;;;;5145902;27;20417;-68
2021/06/17 08:53:01;;;;;;;;;;;28.60;46.10;;;;;;5144031;27;20006;-69
2021/06/17 08:55:29;;;;;;;;;;;28.40;46.10;;;;;;5128973;27;20014;-67
2021/06/17 08:57:56;;;;;;;;;;;28.50;46.30;;;;;;5139295;27;19962;-68
2021/06/17 09:00:27;;;;;;;;;;;28.60;46.80;;;;;;5144611;27;19965;-68
2021/06/17 09:02:54;;;;;;;;;;;28.80;46.50;;;;;;5145220;27;19964;-67
2021/06/17 09:05:21;;;;;;;;;;;28.80;47.10;;;;;;5144548;27;19919;-67
2021/06/17 09:07:48;;;;;;;;;;;28.90;46.90;;;;;;5142048;27;20338;-70
2021/06/17 09:10:15;;;;;;;;;;;28.70;47.10;;;;;;5145580;27;19949;-67
2021/06/17 09:12:51;;;;;;;;;;;28.80;47.80;;;;;;5142114;27;19927;-66
2021/06/17 09:15:27;;;;;;;;;;;28.80;47.80;;;;;;5144574;27;19923;-68
2021/06/17 09:18:13;;;;;;;;;;;28.70;48.10;;;;;;5148584;27;19919;-68
2021/06/17 09:20:44;;;;;;;;;;;28.80;48.00;;;;;;5149454;27;20568;-67
2021/06/17 09:23:25;;;;;;;;;;;29.00;48.10;;;;;;5150023;27;20327;-67
2021/06/17 09:25:58;;;;;;;;;;;29.00;48.00;;;;;;5142030;27;20290;-67
2021/06/17 09:28:26;;;;;;;;;;;29.00;48.00;;;;;;5152296;27;19963;-67
2021/06/17 09:30:53;;;;;;;;;;;29.00;48.10;;;;;;5149427;27;19919;-69
2021/06/17 09:33:25;;;;;;;;;;;29.00;47.60;;;;;;5149711;27;19923;-68
2021/06/17 09:35:56;;;;;;;;;;;29.00;47.70;;;;;;5151477;27;19918;-67
2021/06/17 09:38:24;;;;;;;;;;;29.10;48.00;;;;;;5149325;27;20034;-68
2021/06/17 09:40:52;;;;;;;;;;;29.00;48.70;;;;;;5148994;27;19958;-68
2021/06/17 09:43:20;;;;;;;;;;;28.90;48.90;;;;;;5152138;27;19955;-67
2021/06/17 09:45:50;;;;;;;;;;;29.00;48.70;;;;;;5150773;27;20578;-67
2021/06/17 09:48:36;;;;;;;;;;;29.10;47.90;;;;;;5145628;27;19927;-68
2021/06/17 09:51:21;;;;;;;;;;;29.30;47.70;;;;;;5148930;27;19937;-67
2021/06/17 09:53:48;;;;;;;;;;;29.30;48.10;;;;;;5143539;27;19923;-67
2021/06/17 09:56:15;;;;;;;;;;;29.20;48.70;;;;;;5148072;27;20412;-66
2021/06/17 09:58:44;;;;;;;;;;;29.30;48.50;;;;;;5149013;27;20345;-68
2021/06/17 10:01:15;;;;;;;;;;;29.40;48.20;;;;;;5147665;27;19968;-66
2021/06/17 10:03:58;;;;;;;;;;;29.60;48.20;;;;;;5126283;27;20014;-65
2021/06/17 10:06:26;;;;;;;;;;;29.50;47.90;;;;;;5149948;27;20009;-64
2021/06/17 10:08:53;;;;;;;;;;;29.60;47.90;;;;;;5146066;27;19958;-65
2021/06/17 10:11:21;;;;;;;;;;;29.70;48.20;;;;;;5142989;27;19965;-64
2021/06/17 10:13:48;;;;;;;;;;;29.80;48.20;;;;;;5149895;27;20028;-71
2021/06/17 10:16:19;;;;;;;;;;;30.00;47.90;;;;;;5146526;27;19926;-70
2021/06/17 10:18:46;;;;;;;;;;;29.90;47.60;;;;;;5150696;27;20948;-71
2021/06/17 10:21:14;;;;;;;;;;;29.90;47.70;;;;;;5146242;27;19934;-71
2021/06/17 10:23:46;;;;;;;;;;;30.00;47.90;;;;;;5150953;27;20251;-70
2021/06/17 10:26:13;;;;;;;;;;;30.10;48.30;;;;;;5146855;27;19919;-71
2021/06/17 10:28:44;;;;;;;;;;;30.10;47.30;;;;;;5148914;27;19934;-73
2021/06/17 10:31:13;;;;;;;;;;;30.10;47.60;;;;;;5140816;27;19925;-72
2021/06/17 10:33:40;;;;;;;;;;;30.10;47.40;;;;;;5147282;27;19926;-69
2021/06/17 10:36:21;;;;;;;;;;;30.10;47.70;;;;;;5147724;27;19934;-70
2021/06/17 10:39:09;;;;;;;;;;;30.20;47.70;;;;;;5144681;27;19981;-73
2021/06/17 10:41:59;;;;;;;;;;;30.20;47.80;;;;;;5145254;27;19919;-63
2021/06/17 10:44:44;;;;;;;;;;;30.20;47.70;;;;;;5133908;27;19958;-66
2021/06/17 10:47:30;;;;;;;;;;;30.50;47.00;;;;;;5145656;27;20076;-65
2021/06/17 10:49:57;;;;;;;;;;;30.50;47.20;;;;;;5131408;27;20005;-65
2021/06/17 10:52:29;;;;;;;;;;;30.50;47.10;;;;;;5147177;27;20009;-66
2021/06/17 10:55:06;;;;;;;;;;;30.50;47.40;;;;;;5129293;27;19927;-67
2021/06/17 11:00:22;;;;;;;;;;;30.50;47.30;;;;;;5132505;27;20010;-67
2021/06/17 11:02:56;;;;;;;;;;;30.40;47.00;;;;;;5131306;27;20343;-66
2021/06/17 11:05:28;;;;;;;;;;;30.50;47.40;;;;;;5138230;27;19931;-67
2021/06/17 11:08:20;;;;;;;;;;;30.60;47.30;;;;;;5134494;27;19965;-68
2021/06/17 11:10:51;;;;;;;;;;;30.70;47.50;;;;;;5134279;27;19954;-67
2021/06/17 11:13:28;;;;;;;;;;;30.60;47.50;;;;;;5136417;27;20109;-66
2021/06/17 11:15:56;;;;;;;;;;;30.70;47.40;;;;;;5136683;27;20294;-67
2021/06/17 11:19:04;;;;;;;;;;;30.80;47.60;;;;;;5136539;27;19957;-66
2021/06/17 11:21:34;;;;;;;;;;;30.70;47.50;;;;;;5135441;27;19958;-66
2021/06/17 11:24:06;;;;;;;;;;;30.90;46.90;;;;;;5117537;27;19923;-66
2021/06/17 11:26:36;;;;;;;;;;;31.10;46.60;;;;;;5137037;27;19970;-66
2021/06/17 11:29:35;;;;;;;;;;;31.30;46.60;;;;;;5132971;27;20369;-67
2021/06/17 11:32:03;;;;;;;;;;;31.10;46.70;;;;;;5138285;27;19980;-68
2021/06/17 11:34:31;;;;;;;;;;;31.10;46.70;;;;;;5113259;27;19995;-67
2021/06/17 11:37:03;;;;;;;;;;;31.30;46.80;;;;;;5136301;27;19928;-68
2021/06/17 11:39:33;;;;;;;;;;;31.40;45.40;;;;;;5134037;27;20021;-68
2021/06/17 11:42:02;;;;;;;;;;;31.30;45.80;;;;;;5135049;27;20353;-68
2021/06/17 11:44:30;;;;;;;;;;;31.40;46.40;;;;;;5135225;27;19958;-68
2021/06/17 11:47:08;;;;;;;;;;;31.60;45.60;;;;;;5135277;27;19931;-65
2021/06/17 11:49:36;;;;;;;;;;;31.50;45.30;;;;;;5134609;27;20026;-66
2021/06/17 11:52:06;;;;;;;;;;;31.60;45.60;;;;;;5137416;27;20282;-67
2021/06/17 11:54:33;;;;;;;;;;;32.00;45.30;;;;;;5130786;27;20255;-68
2021/06/17 11:57:01;;;;;;;;;;;32.10;45.00;;;;;;5137028;27;20460;-67
2021/06/17 11:59:32;;;;;;;;;;;31.80;44.30;;;;;;5123230;27;20084;-66
2021/06/17 12:02:05;;;;;;;;;;;32.30;45.00;;;;;;5147112;27;20026;-68
2021/06/17 12:05:07;;;;;;;;;;;32.20;45.10;;;;;;5147361;27;19970;-67
2021/06/17 12:07:38;;;;;;;;;;;32.40;44.90;;;;;;5146728;27;20523;-66
2021/06/17 12:10:05;;;;;;;;;;;32.20;44.70;;;;;;5145494;27;19923;-67
2021/06/17 12:12:32;;;;;;;;;;;32.30;44.70;;;;;;5129893;27;20021;-66
2021/06/17 12:14:59;;;;;;;;;;;32.50;43.70;;;;;;5135256;27;20444;-66
2021/06/17 12:17:30;;;;;;;;;;;32.50;44.20;;;;;;5136435;27;19965;-67
2021/06/17 12:19:57;;;;;;;;;;;34.20;43.00;;;;;;5135746;27;19926;-69
2021/06/17 12:22:24;;;;;;;;;;;35.70;40.40;;;;;;5131893;27;20018;-71
2021/06/17 12:24:52;;;;;;;;;;;37.10;38.90;;;;;;5115825;27;20054;-71
2021/06/17 12:27:19;;;;;;;;;;;38.10;37.80;;;;;;5136273;27;20376;-71
2021/06/17 12:29:46;;;;;;;;;;;41.50;33.20;;;;;;5133441;27;19927;-70
2021/06/17 12:32:13;;;;;;;;;;;41.80;30.90;;;;;;5136732;27;21333;-71
2021/06/17 12:34:43;;;;;;;;;;;43.50;30.60;;;;;;5133781;27;19934;-71
2021/06/17 12:37:10;;;;;;;;;;;44.40;30.00;;;;;;5135352;27;19934;-71
2021/06/17 12:39:54;;;;;;;;;;;45.40;29.50;;;;;;5116839;27;20271;-72
2021/06/17 12:42:21;;;;;;;;;;;45.10;29.50;;;;;;5136419;27;20566;-72
2021/06/17 12:44:55;;;;;;;;;;;43.90;29.70;;;;;;5135953;27;19966;-72
2021/06/17 12:47:25;;;;;;;;;;;42.10;31.50;;;;;;5115406;27;19934;-73
2021/06/17 12:52:39;;;;;;;;;;;40.20;34.00;;;;;;5131719;27;19927;-73
2021/06/17 12:55:11;;;;;;;;;;;40.40;34.00;;;;;;5134662;27;19930;-71
2021/06/17 12:57:56;;;;;;;;;;;41.00;33.70;;;;;;5139631;27;19933;-74
2021/06/17 13:00:23;;;;;;;;;;;39.30;33.30;;;;;;5119651;27;20447;-73
2021/06/17 13:03:04;;;;;;;;;;;38.60;36.30;;;;;;5127893;27;20372;-73
2021/06/17 13:05:44;;;;;;;;;;;39.40;35.40;;;;;;5139712;27;19958;-74
2021/06/17 13:08:17;;;;;;;;;;;39.00;35.10;;;;;;5140966;27;21195;-74
2021/06/17 13:10:52;;;;;;;;;;;38.10;36.20;;;;;;5136319;27;19927;-74
2021/06/17 13:13:26;;;;;;;;;;;38.00;36.10;;;;;;5139061;27;19927;-72
2021/06/17 13:15:59;;;;;;;;;;;37.30;36.10;;;;;;5121531;27;19922;-74
2021/06/17 13:18:35;;;;;;;;;;;36.30;37.50;;;;;;5120841;27;20009;-72
2021/06/17 13:21:15;;;;;;;;;;;36.00;37.80;;;;;;5118378;27;20006;-74
2021/06/17 13:23:44;;;;;;;;;;;36.10;37.90;;;;;;5120358;27;20025;-74
2021/06/17 13:26:13;;;;;;;;;;;35.70;37.00;;;;;;5138995;27;19945;-72
2021/06/17 13:28:45;;;;;;;;;;;35.50;37.80;;;;;;5138043;27;19958;-72
2021/06/17 13:31:18;;;;;;;;;;;34.50;37.70;;;;;;5140149;27;19973;-74
2021/06/17 13:33:57;;;;;;;;;;;34.30;39.10;;;;;;5117616;27;19927;-72
2021/06/17 13:36:26;;;;;;;;;;;34.60;38.40;;;;;;5138594;27;19923;-74
2021/06/17 13:38:58;;;;;;;;;;;35.10;38.10;;;;;;5140243;27;19975;-68
2021/06/17 13:41:25;;;;;;;;;;;34.70;37.00;;;;;;5136168;27;19930;-72
2021/06/17 13:43:58;;;;;;;;;;;34.20;38.40;;;;;;5137751;27;19931;-72
2021/06/17 13:46:27;;;;;;;;;;;34.40;37.80;;;;;;5138351;27;19923;-74
2021/06/17 13:49:03;;;;;;;;;;;34.50;38.00;;;;;;5137957;27;19922;-73
2021/06/17 13:51:30;;;;;;;;;;;34.40;38.00;;;;;;5140851;27;20448;-74
2021/06/17 13:53:57;;;;;;;;;;;34.10;38.20;;;;;;5138244;27;19991;-72
2021/06/17 13:56:24;;;;;;;;;;;34.50;38.10;;;;;;5139368;27;20405;-72
2021/06/17 13:59:09;;;;;;;;;;;34.30;38.40;;;;;;5119530;27;20067;-74
2021/06/17 14:01:40;;;;;;;;;;;34.30;38.30;;;;;;5119926;27;24142;-73
2021/06/17 14:04:25;;;;;;;;;;;34.20;38.40;;;;;;5139768;27;19972;-75
2021/06/17 14:07:03;;;;;;;;;;;34.30;38.50;;;;;;5138576;27;19935;-74
2021/06/17 14:09:35;;;;;;;;;;;33.80;38.80;;;;;;5136276;27;19934;-71
2021/06/17 14:12:04;;;;;;;;;;;33.20;39.70;;;;;;5136637;27;19945;-75
2021/06/17 14:14:33;;;;;;;;;;;33.30;39.50;;;;;;5135975;27;19923;-73
2021/06/17 14:17:36;;;;;;;;;;;33.30;39.00;;;;;;5120502;27;19927;-74
2021/06/17 14:20:20;;;;;;;;;;;33.40;39.20;;;;;;5119383;27;19927;-74
2021/06/17 14:23:16;;;;;;;;;;;33.70;38.30;;;;;;5128670;27;19923;-72
2021/06/17 14:26:02;;;;;;;;;;;33.90;38.50;;;;;;5137553;27;19931;-75
2021/06/17 14:28:43;;;;;;;;;;;33.80;38.40;;;;;;5137824;27;19930;-73
2021/06/17 14:31:11;;;;;;;;;;;33.70;38.70;;;;;;5139377;27;19958;-75
2021/06/17 14:33:38;;;;;;;;;;;33.30;39.10;;;;;;5121193;27;19976;-74
2021/06/17 14:36:08;;;;;;;;;;;33.30;39.50;;;;;;5121037;27;20386;-74
2021/06/17 14:38:39;;;;;;;;;;;33.10;39.80;;;;;;5118884;27;20366;-75
2021/06/17 14:41:12;;;;;;;;;;;33.30;39.20;;;;;;5119196;27;20629;-73